.
WxDataArchive / Data Records for 2015-09-22
2015-09-21 September 2015 2015-09-23

Data Records for Tuesday, 22 September 2015

Time	Temp	Chill	HIndex	Humid	Dewpt	 Wind 	HiWind	WindDir	Rain 	Barom
-----	----	-----	------	-----	-----	------	------	-------	-----	-----
00:00	53.5	53.5	53.5	69	43.6	0	0	---	0.00	30.115 
00:05	53.3	53.3	53.3	69	43.4	0	0	---	0.00	30.115 
00:10	53.2	53.2	53.2	71	44.0	0	0	---	0.00	30.115 
00:15	53.1	53.1	53.1	72	44.3	0	0	---	0.00	30.112 
00:20	52.8	52.8	52.8	73	44.4	0	0	---	0.00	30.112 
00:25	52.6	52.6	52.6	74	44.6	0	0	---	0.00	30.112 
00:30	52.5	52.5	52.5	75	44.8	0	0	---	0.00	30.111 
00:35	52.2	52.2	52.2	75	44.5	0	0	---	0.00	30.111 
00:40	52.0	52.0	52.0	76	44.7	0	0	---	0.00	30.111 
00:45	51.9	51.9	51.9	77	44.9	0	0	---	0.00	30.112 
00:50	51.6	51.6	51.6	77	44.6	0	0	---	0.00	30.112 
00:55	51.4	51.4	51.4	78	44.8	0	0	---	0.00	30.112 
01:00	51.3	51.3	51.3	78	44.7	0	0	---	0.00	30.111 
01:05	51.0	51.0	51.0	79	44.7	0	0	---	0.00	30.111 
01:10	50.8	50.8	50.8	80	44.9	0	0	---	0.00	30.111 
01:15	50.5	50.5	50.5	81	44.9	0	0	---	0.00	30.109 
01:20	50.4	50.4	50.4	81	44.8	0	0	---	0.00	30.109 
01:25	50.2	50.2	50.2	82	44.9	0	0	---	0.00	30.109 
01:30	50.1	50.1	50.1	83	45.1	0	0	---	0.00	30.110 
01:35	49.9	49.9	49.9	83	44.9	0	0	---	0.00	30.110 
01:40	49.8	49.8	49.8	84	45.2	0	0	---	0.00	30.110 
01:45	49.6	49.6	49.6	84	45.0	0	0	---	0.00	30.108 
01:50	49.5	49.5	49.5	84	44.9	0	0	---	0.00	30.108 
01:55	49.4	49.4	49.4	85	45.1	0	0	---	0.00	30.108 
02:00	49.2	49.2	49.2	85	44.9	0	0	---	0.00	30.110 
02:05	49.1	49.1	49.1	85	44.8	0	0	---	0.00	30.110 
02:10	48.9	48.9	48.9	86	44.9	0	0	---	0.00	30.110 
02:15	48.8	48.8	48.8	86	44.8	0	0	---	0.00	30.108 
02:20	48.8	48.8	48.8	86	44.8	0	0	---	0.00	30.108 
02:25	48.6	48.6	48.6	87	44.9	0	0	---	0.00	30.108 
02:30	48.5	48.5	48.5	87	44.8	0	0	---	0.00	30.111 
02:35	48.5	48.5	48.5	87	44.8	0	0	---	0.00	30.111 
02:40	48.3	48.3	48.3	88	44.9	0	0	---	0.00	30.111 
02:45	48.3	48.3	48.3	88	44.9	0	0	---	0.00	30.114 
02:50	48.3	48.3	48.3	88	44.9	0	0	---	0.00	30.114 
02:55	48.2	48.2	48.2	88	44.8	0	0	---	0.00	30.114 
03:00	48.2	48.2	48.2	88	44.8	0	0	---	0.00	30.117 
03:05	48.0	48.0	48.0	89	44.9	0	0	---	0.00	30.117 
03:10	47.9	47.9	47.9	89	44.8	0	0	---	0.00	30.117 
03:15	47.9	47.9	47.9	89	44.8	0	0	---	0.00	30.115 
03:20	47.7	47.7	47.7	89	44.6	0	0	---	0.00	30.115 
03:25	47.7	47.7	47.7	89	44.6	0	0	---	0.00	30.115 
03:30	47.7	47.7	47.7	90	44.9	0	0	---	0.00	30.116 
03:35	47.6	47.6	47.6	90	44.8	0	0	---	0.00	30.116 
03:40	47.6	47.6	47.6	90	44.8	0	0	---	0.00	30.116 
03:45	47.6	47.6	47.6	90	44.8	0	0	---	0.00	30.117 
03:50	47.4	47.4	47.4	90	44.6	0	0	---	0.00	30.117 
03:55	47.4	47.4	47.4	90	44.6	0	0	---	0.00	30.117 
04:00	47.4	47.4	47.4	91	44.9	0	0	---	0.00	30.117 
04:05	47.4	47.4	47.4	91	44.9	0	0	---	0.00	30.117 
04:10	47.4	47.4	47.4	91	44.9	0	0	---	0.00	30.117 
04:15	47.4	47.4	47.4	91	44.9	0	0	---	0.00	30.129 
04:20	47.4	47.4	47.4	91	44.9	0	0	---	0.00	30.129 
04:25	47.4	47.4	47.4	91	44.9	0	0	---	0.00	30.129 
04:30	47.3	47.3	47.3	91	44.8	0	0	---	0.00	30.129 
04:35	47.3	47.3	47.3	91	44.8	0	0	---	0.00	30.129 
04:40	47.1	47.1	47.1	91	44.6	0	0	---	0.00	30.129 
04:45	47.1	47.1	47.1	92	44.9	0	0	---	0.00	30.129 
04:50	47.1	47.1	47.1	92	44.9	0	0	---	0.00	30.129 
04:55	47.0	47.0	47.0	92	44.8	0	0	---	0.00	30.129 
05:00	47.0	47.0	47.0	92	44.8	0	0	---	0.00	30.129 
05:05	46.8	46.8	46.8	92	44.6	0	0	---	0.00	30.129 
05:10	46.8	46.8	46.8	92	44.6	0	0	---	0.00	30.129 
05:15	46.8	46.8	46.8	92	44.6	0	0	---	0.00	30.131 
05:20	46.8	46.8	46.8	92	44.6	0	0	---	0.00	30.131 
05:25	46.7	46.7	46.7	92	44.5	0	0	---	0.00	30.131 
05:30	46.7	46.7	46.7	92	44.5	0	0	---	0.00	30.135 
05:35	46.7	46.7	46.7	92	44.5	0	0	---	0.00	30.135 
05:40	46.7	46.7	46.7	92	44.5	0	0	---	0.00	30.135 
05:45	46.5	46.5	46.5	92	44.3	0	0	---	0.00	30.142 
05:50	46.5	46.5	46.5	92	44.3	0	0	---	0.00	30.142 
05:55	46.4	46.4	46.4	92	44.2	0	0	---	0.00	30.142 
06:00	46.4	46.4	46.4	92	44.2	0	0	---	0.00	30.147 
06:05	46.4	46.4	46.4	92	44.2	0	0	---	0.00	30.147 
06:10	46.4	46.4	46.4	92	44.2	0	0	---	0.00	30.147 
06:15	46.4	46.4	46.4	92	44.2	0	0	---	0.00	30.153 
06:20	46.4	46.4	46.4	92	44.2	0	0	---	0.00	30.153 
06:25	46.5	46.5	46.5	93	44.6	0	0	---	0.00	30.153 
06:30	46.7	46.7	46.7	93	44.8	0	0	---	0.00	30.164 
06:35	46.7	46.7	46.7	93	44.8	0	0	---	0.00	30.164 
06:40	46.7	46.7	46.7	93	44.8	0	0	---	0.00	30.164 
06:45	46.7	46.7	46.7	93	44.8	0	0	---	0.00	30.167 
06:50	46.5	46.5	46.5	93	44.6	0	0	---	0.00	30.167 
06:55	46.5	46.5	46.5	93	44.6	0	0	---	0.00	30.167 
07:00	46.4	46.4	46.4	93	44.5	0	0	---	0.00	30.176 
07:05	46.4	46.4	46.4	93	44.5	0	0	---	0.00	30.176 
07:10	46.2	46.2	46.2	93	44.3	0	0	---	0.00	30.176 
07:15	46.2	46.2	46.2	93	44.3	0	0	---	0.00	30.178 
07:20	46.1	46.1	46.1	93	44.2	0	0	---	0.00	30.178 
07:25	46.0	46.0	46.0	93	44.1	0	0	---	0.00	30.178 
07:30	46.0	46.0	46.0	93	44.1	0	0	---	0.00	30.180 
07:35	46.1	46.1	46.1	93	44.2	0	0	---	0.00	30.180 
07:40	46.1	46.1	46.1	93	44.2	0	0	---	0.00	30.180 
07:45	46.1	46.1	46.1	93	44.2	0	0	---	0.00	30.184 
07:50	46.1	46.1	46.1	93	44.2	0	0	---	0.00	30.184 
07:55	46.1	46.1	46.1	93	44.2	0	0	---	0.00	30.184 
08:00	46.2	46.2	46.2	93	44.3	0	0	---	0.00	30.190 
08:05	46.4	46.4	46.4	93	44.5	0	0	---	0.00	30.190 
08:10	46.5	46.5	46.5	94	44.9	0	0	---	0.00	30.190 
08:15	46.7	46.7	46.7	94	45.1	0	0	---	0.00	30.199 
08:20	47.0	47.0	47.0	94	45.4	0	0	---	0.00	30.199 
08:25	47.6	47.6	47.6	94	46.0	0	0	---	0.00	30.199 
08:30	48.2	48.2	48.2	95	46.8	0	0	---	0.00	30.198 
08:35	48.8	48.8	48.8	95	47.4	0	0	---	0.00	30.198 
08:40	49.4	49.4	49.4	95	48.0	0	0	---	0.00	30.198 
08:45	50.1	50.1	50.1	96	49.0	0	1	90	0.00	30.195 
08:50	51.3	51.3	51.3	95	49.9	0	0	---	0.00	30.195 
08:55	52.0	52.0	52.0	95	50.6	0	2	90	0.00	30.195 
09:00	52.6	52.6	52.6	95	51.2	0	2	90	0.00	30.199 
09:05	53.2	53.2	53.2	94	51.5	0	2	90	0.00	30.199 
09:10	53.6	53.6	53.6	94	51.9	0	1	90	0.00	30.199 
09:15	54.1	54.1	54.1	93	52.1	1	3	90	0.00	30.201 
09:20	54.4	54.4	54.4	92	52.1	1	3	90	0.00	30.201 
09:25	54.7	54.7	54.7	92	52.4	0	3	90	0.00	30.201 
09:30	55.0	55.0	55.0	91	52.4	0	1	90	0.00	30.206 
09:35	55.4	55.4	55.4	91	52.8	0	1	90	0.00	30.206 
09:40	55.9	55.9	55.9	91	53.3	0	1	90	0.00	30.206 
09:45	56.2	56.2	56.2	90	53.3	0	2	90	0.00	30.204 
09:50	56.6	56.6	56.6	90	53.7	0	3	90	0.00	30.204 
09:55	57.0	57.0	57.0	89	53.8	0	2	90	0.00	30.204 
10:00	57.6	57.6	57.6	89	54.4	0	2	90	0.00	30.204 
10:05	58.4	58.4	58.4	87	54.5	1	3	90	0.00	30.204 
10:10	59.2	59.2	59.2	86	55.0	0	1	90	0.00	30.204 
10:15	59.6	59.6	59.6	85	55.1	0	2	90	0.00	30.208 
10:20	60.1	60.1	60.1	84	55.2	0	2	90	0.00	30.208 
10:25	60.7	60.7	60.7	83	55.5	0	2	90	0.00	30.208 
10:30	61.5	61.5	61.5	81	55.6	0	2	90	0.00	30.207 
10:35	62.4	62.4	62.4	80	56.1	0	3	90	0.00	30.207 
10:40	63.2	63.2	63.2	79	56.6	0	3	90	0.00	30.207 
10:45	63.9	63.9	63.9	77	56.5	0	3	90	0.00	30.206 
10:50	64.5	64.5	64.5	75	56.4	1	3	90	0.00	30.206 
10:55	65.3	65.3	65.3	75	57.2	0	1	90	0.00	30.206 
11:00	66.3	66.3	66.3	71	56.6	0	2	90	0.00	30.205 
11:05	66.8	66.8	66.8	70	56.7	0	3	90	0.00	30.205 
11:10	67.4	67.4	67.4	70	57.3	0	3	90	0.00	30.205 
11:15	67.8	67.8	67.8	69	57.2	0	3	90	0.00	30.200 
11:20	68.1	68.1	68.1	69	57.5	0	3	90	0.00	30.200 
11:25	68.6	68.6	68.6	69	58.0	0	1	90	0.00	30.200 
11:30	69.1	69.1	69.1	66	57.3	0	2	90	0.00	30.203 
11:35	69.3	69.3	69.3	65	57.0	0	1	90	0.00	30.203 
11:40	68.8	68.8	68.8	64	56.1	0	2	90	0.00	30.203 
11:45	68.9	68.9	68.9	61	54.9	0	3	90	0.00	30.197 
11:50	69.3	69.3	69.3	59	54.3	0	2	90	0.00	30.197 
11:55	69.4	69.4	69.4	55	52.5	0	2	90	0.00	30.197 
12:00	69.3	69.3	69.3	58	53.9	0	1	90	0.00	30.194 
12:05	69.8	69.8	69.8	61	55.7	0	1	90	0.00	30.194 
12:10	70.4	70.4	70.4	53	52.4	1	3	90	0.00	30.194 
12:15	71.1	71.1	71.1	53	53.1	0	1	90	0.00	30.196 
12:20	71.8	71.8	71.8	56	55.2	0	1	90	0.00	30.196 
12:25	71.6	71.6	71.6	51	52.5	0	1	90	0.00	30.196 
12:30	71.5	71.5	71.5	51	52.4	0	2	90	0.00	30.193 
12:35	71.1	71.1	71.1	50	51.5	0	1	90	0.00	30.193 
12:40	71.3	71.3	71.3	52	52.8	0	1	90	0.00	30.193 
12:45	71.8	71.8	71.8	50	52.1	0	1	90	0.00	30.192 
12:50	72.7	72.7	72.7	47	51.3	0	3	90	0.00	30.192 
12:55	73.3	73.3	73.3	44	50.1	0	1	90	0.00	30.192 
13:00	73.5	73.5	73.5	47	52.0	0	2	90	0.00	30.190 
13:05	73.9	73.9	73.9	44	50.6	0	1	90	0.00	30.190 
13:10	74.0	74.0	74.0	40	48.1	2	5	90	0.00	30.190 
13:15	73.7	73.7	73.7	39	47.2	2	5	90	0.00	30.191 
13:20	73.7	73.7	73.7	39	47.2	0	1	90	0.00	30.191 
13:25	74.0	74.0	74.0	39	47.5	0	3	90	0.00	30.191 
13:30	74.0	74.0	74.0	35	44.6	0	2	90	0.00	30.189 
13:35	74.0	74.0	74.0	35	44.6	1	4	90	0.00	30.189 
13:40	74.2	74.2	74.2	39	47.6	0	1	90	0.00	30.189 
13:45	74.4	74.4	74.4	40	48.5	0	3	90	0.00	30.190 
13:50	74.6	74.6	74.6	37	46.6	0	1	90	0.00	30.190 
13:55	74.6	74.6	74.6	38	47.3	1	3	248	0.00	30.190 
14:00	74.4	74.4	74.4	37	46.4	0	2	248	0.00	30.188 
14:05	74.7	74.7	74.7	39	48.1	0	3	248	0.00	30.188 
14:10	74.9	74.9	74.9	39	48.3	0	3	158	0.00	30.188 
14:15	74.9	74.9	74.9	40	48.9	1	4	90	0.00	30.176 
14:20	74.9	74.9	74.9	37	46.9	0	2	90	0.00	30.176 
14:25	75.3	75.3	77.5	38	47.9	0	2	90	0.00	30.176 
14:30	75.3	75.3	77.4	36	46.5	0	3	90	0.00	30.172 
14:35	75.4	75.4	77.3	34	45.1	0	2	90	0.00	30.172 
14:40	75.4	75.4	77.2	32	43.5	0	2	90	0.00	30.172 
14:45	75.4	75.4	77.4	35	45.8	1	3	90	0.00	30.173 
14:50	75.4	75.4	77.4	35	45.8	0	2	90	0.00	30.173 
14:55	75.8	75.8	77.5	34	45.4	1	4	90	0.00	30.173 
15:00	75.8	75.8	77.6	36	46.9	0	1	90	0.00	30.171 
15:05	75.6	75.6	77.3	32	43.6	0	1	90	0.00	30.171 
15:10	75.6	75.6	77.4	34	45.2	0	2	90	0.00	30.171 
15:15	75.6	75.6	77.1	30	42.0	0	1	90	0.00	30.170 
15:20	76.0	76.0	77.4	32	44.0	0	2	90	0.00	30.170 
15:25	76.0	76.0	77.1	27	39.6	1	3	90	0.00	30.170 
15:30	76.1	76.1	77.4	32	44.1	0	2	90	0.00	30.163 
15:35	76.3	76.3	77.5	31	43.4	0	3	90	0.00	30.163 
15:40	76.5	76.5	77.5	31	43.6	0	2	90	0.00	30.163 
15:45	76.5	76.5	77.8	35	46.8	0	2	90	0.00	30.161 
15:50	76.3	76.3	77.7	35	46.6	0	1	90	0.00	30.161 
15:55	76.0	76.0	77.6	35	46.4	0	1	90	0.00	30.161 
16:00	76.0	76.0	77.8	39	49.2	0	2	90	0.00	30.159 
16:05	75.8	75.8	77.5	35	46.2	0	3	90	0.00	30.159 
16:10	75.6	75.6	77.3	33	44.5	1	3	90	0.00	30.159 
16:15	75.6	75.6	77.5	36	46.7	0	1	90	0.00	30.157 
16:20	75.6	75.6	77.4	34	45.2	0	1	90	0.00	30.157 
16:25	75.6	75.6	77.2	31	42.8	0	2	90	0.00	30.157 
16:30	75.6	75.6	77.2	31	42.8	0	3	90	0.00	30.155 
16:35	75.6	75.6	77.2	31	42.8	0	2	90	0.00	30.155 
16:40	75.4	75.4	77.1	30	41.8	0	2	90	0.00	30.155 
16:45	75.4	75.4	77.2	32	43.5	0	0	---	0.00	30.150 
16:50	75.4	75.4	77.3	34	45.1	0	2	90	0.00	30.150 
16:55	75.4	75.4	77.3	33	44.3	0	2	90	0.00	30.150 
17:00	75.4	75.4	77.4	35	45.8	0	1	90	0.00	30.148 
17:05	75.4	75.4	77.3	34	45.1	1	3	90	0.00	30.148 
17:10	75.4	75.4	77.3	33	44.3	0	1	90	0.00	30.148 
17:15	75.4	75.4	77.3	34	45.1	0	1	90	0.00	30.155 
17:20	75.4	75.4	77.2	32	43.5	0	1	90	0.00	30.155 
17:25	75.4	75.4	77.3	34	45.1	0	2	90	0.00	30.155 
17:30	75.4	75.4	77.3	34	45.1	0	1	90	0.00	30.154 
17:35	75.3	75.3	77.4	35	45.7	0	2	90	0.00	30.154 
17:40	75.3	75.3	77.4	35	45.7	0	0	---	0.00	30.154 
17:45	75.3	75.3	77.3	34	45.0	0	1	90	0.00	30.156 
17:50	75.3	75.3	77.4	35	45.7	0	1	90	0.00	30.156 
17:55	75.3	75.3	77.3	34	45.0	0	1	90	0.00	30.156 
18:00	75.3	75.3	77.3	34	45.0	0	2	90	0.00	30.160 
18:05	75.4	75.4	77.3	34	45.1	0	1	90	0.00	30.160 
18:10	75.4	75.4	77.3	34	45.1	0	2	90	0.00	30.160 
18:15	75.4	75.4	77.3	34	45.1	0	2	90	0.00	30.160 
18:20	75.1	75.1	77.2	34	44.8	0	1	90	0.00	30.160 
18:25	74.9	74.9	74.9	35	45.4	0	1	90	0.00	30.160 
18:30	74.7	74.7	74.7	36	46.0	0	1	90	0.00	30.160 
18:35	74.6	74.6	74.6	38	47.3	0	0	---	0.00	30.160 
18:40	74.4	74.4	74.4	38	47.1	0	1	90	0.00	30.160 
18:45	74.0	74.0	74.0	39	47.5	0	0	---	0.00	30.161 
18:50	73.9	73.9	73.9	38	46.7	0	0	---	0.00	30.161 
18:55	73.5	73.5	73.5	39	47.0	0	0	---	0.00	30.161 
19:00	73.3	73.3	73.3	40	47.5	0	0	---	0.00	30.164 
19:05	73.0	73.0	73.0	40	47.2	0	0	---	0.00	30.164 
19:10	72.7	72.7	72.7	41	47.6	0	0	---	0.00	30.164 
19:15	72.1	72.1	72.1	42	47.7	0	0	---	0.00	30.163 
19:20	71.6	71.6	71.6	43	47.9	0	0	---	0.00	30.163 
19:25	71.1	71.1	71.1	44	48.1	0	0	---	0.00	30.163 
19:30	70.6	70.6	70.6	46	48.8	0	0	---	0.00	30.164 
19:35	70.1	70.1	70.1	46	48.3	0	0	---	0.00	30.164 
19:40	69.4	69.4	69.4	47	48.3	0	0	---	0.00	30.164 
19:45	68.8	68.8	68.8	49	48.8	0	0	---	0.00	30.167 
19:50	68.1	68.1	68.1	51	49.3	0	0	---	0.00	30.167 
19:55	67.3	67.3	67.3	52	49.1	0	0	---	0.00	30.167 
20:00	66.6	66.6	66.6	54	49.4	0	0	---	0.00	30.174 
20:05	66.0	66.0	66.0	56	49.8	0	0	---	0.00	30.174 
20:10	65.3	65.3	65.3	58	50.1	0	0	---	0.00	30.174 
20:15	64.8	64.8	64.8	58	49.7	0	0	---	0.00	30.173 
20:20	64.5	64.5	64.5	60	50.3	0	0	---	0.00	30.173 
20:25	64.0	64.0	64.0	61	50.3	0	0	---	0.00	30.173 
20:30	63.5	63.5	63.5	63	50.7	0	0	---	0.00	30.180 
20:35	63.2	63.2	63.2	64	50.8	0	0	---	0.00	30.180 
20:40	62.7	62.7	62.7	65	50.8	0	0	---	0.00	30.180 
20:45	62.3	62.3	62.3	66	50.8	0	0	---	0.00	30.183 
20:50	62.0	62.0	62.0	67	50.9	0	0	---	0.00	30.183 
20:55	61.6	61.6	61.6	68	50.9	0	0	---	0.00	30.183 
21:00	61.3	61.3	61.3	70	51.4	0	0	---	0.00	30.185 
21:05	60.9	60.9	60.9	71	51.4	0	0	---	0.00	30.185 
21:10	60.5	60.5	60.5	71	51.0	0	0	---	0.00	30.185 
21:15	60.2	60.2	60.2	71	50.8	0	0	---	0.00	30.185 
21:20	60.1	60.1	60.1	71	50.7	0	0	---	0.00	30.185 
21:25	59.8	59.8	59.8	72	50.8	0	0	---	0.00	30.185 
21:30	59.6	59.6	59.6	72	50.6	0	0	---	0.00	30.186 
21:35	59.5	59.5	59.5	73	50.8	0	0	---	0.00	30.186 
21:40	59.2	59.2	59.2	73	50.5	0	0	---	0.00	30.186 
21:45	59.0	59.0	59.0	75	51.1	0	0	---	0.00	30.191 
21:50	58.9	58.9	58.9	75	51.0	0	0	---	0.00	30.191 
21:55	58.6	58.6	58.6	74	50.3	0	0	---	0.00	30.191 
22:00	58.4	58.4	58.4	75	50.5	0	0	---	0.00	30.196 
22:05	58.3	58.3	58.3	76	50.8	0	0	---	0.00	30.196 
22:10	58.1	58.1	58.1	76	50.6	0	0	---	0.00	30.196 
22:15	58.0	58.0	58.0	77	50.8	0	0	---	0.00	30.190 
22:20	57.8	57.8	57.8	76	50.3	0	0	---	0.00	30.190 
22:25	57.6	57.6	57.6	76	50.1	0	0	---	0.00	30.190 
22:30	57.5	57.5	57.5	77	50.3	0	0	---	0.00	30.195 
22:35	57.3	57.3	57.3	77	50.1	0	0	---	0.00	30.195 
22:40	57.0	57.0	57.0	77	49.9	0	0	---	0.00	30.195 
22:45	56.9	56.9	56.9	78	50.1	0	0	---	0.00	30.203 
22:50	56.7	56.7	56.7	79	50.3	0	0	---	0.00	30.203 
22:55	56.5	56.5	56.5	79	50.1	0	0	---	0.00	30.203 
23:00	56.5	56.5	56.5	80	50.4	0	0	---	0.00	30.207 
23:05	56.3	56.3	56.3	80	50.2	0	0	---	0.00	30.207 
23:10	56.5	56.5	56.5	80	50.4	0	0	---	0.00	30.207 
23:15	56.5	56.5	56.5	80	50.4	0	0	---	0.00	30.204 
23:20	56.6	56.6	56.6	80	50.5	0	0	---	0.00	30.204 
23:25	56.6	56.6	56.6	80	50.5	0	0	---	0.00	30.204 
23:30	56.5	56.5	56.5	80	50.4	0	0	---	0.00	30.204 
23:35	56.5	56.5	56.5	80	50.4	0	0	---	0.00	30.204 
23:40	56.3	56.3	56.3	80	50.2	0	0	---	0.00	30.204 
23:45	56.2	56.2	56.2	80	50.1	0	0	---	0.00	30.207 
23:50	56.0	56.0	56.0	80	49.9	0	0	---	0.00	30.207 
23:55	55.9	55.9	55.9	81	50.2	0	0	---	0.00	30.207 

CoCoRaHS
IN-AL-39
A2 Web Hosting
Creative Commons License
GoDaddy
search engine by freefind advanced

loaded 2018-11-20 14:43:32 • last modified 2010-11-18 10:43:29
Privacy PolicyDisclaimer
• wx.awcolley.com is powered by PmWiki v.2002016 •
• all content (unless otherwise noted) © 2018 A W Colley